Portville, New York
Current Conditions -  °F | °C
As of 2:55 AM on Tuesday 21 Oct 2014 (Local Time) from KOLE Reporting Station
Light Rain Light Rain  
Wind Chill: 43°   Ceiling: 300
Heat Index: 43°   Visibility: 3mi
Dew Point: 43°   Wind: 3mph
Humidity: 100%   Direction: 210°SSW
Pressure: 29.79"   Gusts: NA
Location:  42.04°N, 78.34°W
Report Text: KOLE 210655Z AUTO 21003KT 3SM -RA OVC003 06/06 A2979 RMK AO2
Loading
Personal Weather Stations






























Interactive Weather Map New forecast layout! Learn more

10-Day Weather Forecast

Advertisements
Track Severe Weather on mobile